Погода Эль-Монтена неделю

Калифорния, США

01 - 07 сентября
  • 01сентября
    Сегодня
    +17°
    +30°
    Ясно и безоблачно
    ВремяПогодаТемператураВлажностьДавлениеВетер, м/сВероятность осадков
    02:00Ясно и безоблачно+18°C75 %753 мм1.2 м/с2 %
    05:00Ясно и безоблачно+17°C82 %752 мм0.6 м/с2 %
    08:00Ясно и безоблачно+18°C76 %753 мм0.3 м/с2 %
    11:00Ясно и безоблачно+23°C47 %754 мм2.2 м/с2 %
    14:00Ясно и безоблачно+29°C34 %753 мм3.4 м/с2 %
    17:00Ясно и безоблачно+28°C36 %752 мм4.1 м/с2 %
    20:00Ясно и безоблачно+23°C54 %752 мм3.1 м/с2 %
    23:00Ясно и безоблачно+20°C69 %754 мм1.7 м/с2 %
  • 02сентября
    Среда
    +18°
    +30°
    Ясно и безоблачно
    ВремяПогодаТемператураВлажностьДавлениеВетер, м/сВероятность осадков
    02:00Ясно и безоблачно+19°C74 %754 мм0.8 м/с2 %
    05:00Ясно и безоблачно+18°C79 %753 мм0.3 м/с2 %
    08:00Ясно и безоблачно+19°C68 %754 мм0.1 м/с2 %
    11:00Ясно и безоблачно+24°C46 %754 мм2.0 м/с2 %
    14:00Ясно и безоблачно+29°C30 %753 мм3.2 м/с2 %
    17:00Ясно и безоблачно+29°C31 %752 мм4.3 м/с2 %
    20:00Ясно и безоблачно+24°C47 %752 мм3.2 м/с2 %
    23:00Ясно и безоблачно+22°C54 %753 мм1.6 м/с2 %
  • 03сентября
    Четверг
    +18°
    +30°
    Ясно и безоблачно
    ВремяПогодаТемператураВлажностьДавлениеВетер, м/сВероятность осадков
    02:00Ясно и безоблачно+20°C67 %753 мм0.9 м/с2 %
    05:00Ясно и безоблачно+18°C71 %752 мм0.3 м/с2 %
    08:00Ясно и безоблачно+20°C72 %753 мм0.4 м/с2 %
    11:00Ясно и безоблачно+24°C46 %752 мм2.3 м/с2 %
    14:00Ясно и безоблачно+29°C37 %751 мм3.6 м/с2 %
    17:00Ясно и безоблачно+28°C42 %750 мм4.2 м/с2 %
    20:00Ясно и безоблачно+24°C59 %750 мм3.4 м/с2 %
    23:00Ясно и безоблачно+22°C67 %751 мм1.9 м/с2 %
  • 04сентября
    Пятница
    +18°
    +31°
    Ясно и безоблачно
    ВремяПогодаТемператураВлажностьДавлениеВетер, м/сВероятность осадков
    02:00Ясно и безоблачно+20°C79 %751 мм1.3 м/с2 %
    05:00Ясно и безоблачно+19°C86 %751 мм0.4 м/с2 %
    08:00Ясно и безоблачно+20°C75 %752 мм0.0 м/с2 %
    11:00Ясно и безоблачно+25°C49 %752 мм1.6 м/с2 %
    14:00Ясно и безоблачно+30°C32 %751 мм3.3 м/с2 %
    17:00Ясно и безоблачно+30°C31 %750 мм3.9 м/с2 %
    20:00Ясно и безоблачно+25°C58 %751 мм3.4 м/с2 %
    23:00Ясно и безоблачно+22°C70 %752 мм1.9 м/с2 %
  • 05сентября
    Суббота
    +21°
    +33°
    Ясно и безоблачно
    ВремяПогодаТемператураВлажностьДавлениеВетер, м/сВероятность осадков
    02:00Ясно и безоблачно+20°C82 %752 мм1.1 м/с2 %
    05:00Ясно и безоблачно+19°C84 %751 мм0.6 м/с6 %
    08:00Ясно и безоблачно+21°C68 %752 мм0.0 м/с13 %
    11:00Ясно и безоблачно+27°C36 %752 мм1.7 м/с14 %
    14:00Ясно и безоблачно+32°C22 %751 мм3.3 м/с19 %
    17:00Ясно и безоблачно+32°C23 %750 мм4.1 м/с24 %
    20:00Ясно и безоблачно+27°C50 %751 мм3.5 м/с20 %
    23:00Ясно и безоблачно+25°C61 %752 мм1.9 м/с20 %
  • 06сентября
    Воскресенье
    +19°
    +33°
    Ясно и безоблачно
    ВремяПогодаТемператураВлажностьДавлениеВетер, м/сВероятность осадков
    05:00Ясно и безоблачно+22°C77 %751 мм0.5 м/с32 %
    11:00Ясно и безоблачно+28°C48 %752 мм1.3 м/с37 %
    17:00Ясно и безоблачно+32°C47 %750 мм3.1 м/с36 %
    23:00Ясно и безоблачно+24°C56 %752 мм1.5 м/с25 %
  • 07сентября
    Понедельник
    +18°
    +33°
    Ясно и безоблачно
    ВремяПогодаТемператураВлажностьДавлениеВетер, м/сВероятность осадков
    05:00Ясно и безоблачно+20°C66 %751 мм1.4 м/с20 %
    11:00Ясно и безоблачно+29°C35 %752 мм2.3 м/с25 %
    17:00Ясно и безоблачно+30°C31 %750 мм3.4 м/с24 %
    23:00Ясно и безоблачно+22°C63 %751 мм1.5 м/с17 %
Мы используем cookies
Соглашаюсь